Time;durP1;ratioP1;P1;durP2;ratioP2;P2;SDS_P1;SDS_P2;PMS_P1;PMS_P2;Temp;Humidity;BMP_temperature;BMP_pressure;BME280_temperature;BME280_humidity;BME280_pressure;Samples;Min_cycle;Max_cycle;Signal;HPM_P1;HPM_P2
2022/11/15 00:00:48;;;;;;;11.23;1.50;;;;;;;;;;5033469;28;20057;-71
2022/11/15 00:03:18;;;;;;;9.70;1.40;;;;;;;;;;5033445;28;20834;-71
2022/11/15 00:05:44;;;;;;;10.07;1.20;;;;;;;;;;5033830;28;20045;-71
2022/11/15 00:08:11;;;;;;;5.90;1.30;;;;;;;;;;5033755;28;20046;-71
2022/11/15 00:10:37;;;;;;;8.25;1.40;;;;;;;;;;5033602;28;20058;-71
2022/11/15 00:13:05;;;;;;;8.52;1.25;;;;;;;;;;5033531;28;20064;-71
2022/11/15 00:15:34;;;;;;;8.25;1.20;;;;;;;;;;5032105;28;20056;-71
2022/11/15 00:18:00;;;;;;;9.05;1.50;;;;;;;;;;5033518;28;20049;-71
2022/11/15 00:20:26;;;;;;;12.35;1.60;;;;;;;;;;5033566;28;20048;-71
2022/11/15 00:22:53;;;;;;;8.85;1.55;;;;;;;;;;5033465;28;20045;-71
2022/11/15 00:25:19;;;;;;;9.30;1.42;;;;;;;;;;5033199;28;20042;-71
2022/11/15 00:27:45;;;;;;;6.72;1.33;;;;;;;;;;5033291;28;20050;-71
2022/11/15 00:30:12;;;;;;;7.30;1.40;;;;;;;;;;5033281;28;20080;-71
2022/11/15 00:32:38;;;;;;;9.23;1.02;;;;;;;;;;5031378;28;20507;-71
2022/11/15 00:35:05;;;;;;;7.05;1.65;;;;;;;;;;5032726;28;20493;-71
2022/11/15 00:37:31;;;;;;;11.70;1.50;;;;;;;;;;5033104;28;20045;-71
2022/11/15 00:39:58;;;;;;;7.38;1.20;;;;;;;;;;5032780;28;20049;-71
2022/11/15 00:42:24;;;;;;;6.60;1.10;;;;;;;;;;5032754;28;20531;-71
2022/11/15 00:44:50;;;;;;;8.68;1.52;;;;;;;;;;5032991;28;20057;-71
2022/11/15 00:47:16;;;;;;;11.02;1.58;;;;;;;;;;5032588;28;20481;-70
2022/11/15 00:49:43;;;;;;;10.00;1.23;;;;;;;;;;5032729;28;20049;-71
2022/11/15 00:52:09;;;;;;;8.80;1.27;;;;;;;;;;5032888;28;20404;-71
2022/11/15 00:54:36;;;;;;;9.63;1.42;;;;;;;;;;5032933;28;20048;-71
2022/11/15 00:57:02;;;;;;;11.95;1.70;;;;;;;;;;5032830;28;20050;-71
2022/11/15 00:59:28;;;;;;;7.43;1.33;;;;;;;;;;5032311;28;20056;-71
2022/11/15 01:01:55;;;;;;;7.57;1.13;;;;;;;;;;5032666;28;20466;-71
2022/11/15 01:04:21;;;;;;;9.48;1.48;;;;;;;;;;5032552;28;20413;-71
2022/11/15 01:06:47;;;;;;;7.85;1.17;;;;;;;;;;5032588;28;20045;-71
2022/11/15 01:09:14;;;;;;;7.25;1.42;;;;;;;;;;5032253;28;20050;-71
2022/11/15 01:11:40;;;;;;;8.20;1.25;;;;;;;;;;5031122;28;20064;-71
2022/11/15 01:14:07;;;;;;;6.90;1.45;;;;;;;;;;5032208;28;20053;-71
2022/11/15 01:16:33;;;;;;;8.93;1.33;;;;;;;;;;5031133;28;20045;-71
2022/11/15 01:19:00;;;;;;;9.73;1.42;;;;;;;;;;5032434;28;20107;-71
2022/11/15 01:21:26;;;;;;;9.82;1.38;;;;;;;;;;5032053;28;20046;-71
2022/11/15 01:23:53;;;;;;;8.93;1.17;;;;;;;;;;5032212;28;20052;-71
2022/11/15 01:26:20;;;;;;;8.40;1.20;;;;;;;;;;5030838;28;20406;-71
2022/11/15 01:28:46;;;;;;;6.43;1.27;;;;;;;;;;5031864;28;20477;-72
2022/11/15 01:31:15;;;;;;;7.35;2.00;;;;;;;;;;5032006;28;20053;-72
2022/11/15 01:33:41;;;;;;;12.38;1.33;;;;;;;;;;5032064;28;20052;-72
2022/11/15 01:36:10;;;;;;;8.85;1.20;;;;;;;;;;5031772;28;20053;-72
2022/11/15 01:38:36;;;;;;;7.22;1.30;;;;;;;;;;5032154;28;20056;-72
2022/11/15 01:41:03;;;;;;;6.97;1.25;;;;;;;;;;5031901;28;20056;-72
2022/11/15 01:43:34;;;;;;;5.53;1.10;;;;;;;;;;5032095;28;20059;-72
2022/11/15 01:46:04;;;;;;;6.53;1.27;;;;;;;;;;5031034;28;20404;-72
2022/11/15 01:48:32;;;;;;;12.10;1.50;;;;;;;;;;5031925;28;20049;-72
2022/11/15 01:51:03;;;;;;;8.50;1.30;;;;;;;;;;5030548;28;20067;-72
2022/11/15 01:53:31;;;;;;;8.32;1.35;;;;;;;;;;5031713;28;20049;-71
2022/11/15 01:55:59;;;;;;;10.38;1.45;;;;;;;;;;5031612;28;20077;-72
2022/11/15 01:58:25;;;;;;;7.53;1.65;;;;;;;;;;5031666;28;20416;-72
2022/11/15 02:00:52;;;;;;;10.85;1.55;;;;;;;;;;5031825;28;20076;-71
2022/11/15 02:03:19;;;;;;;8.68;1.60;;;;;;;;;;5031854;28;20046;-72
2022/11/15 02:05:45;;;;;;;12.50;1.73;;;;;;;;;;5031616;28;20053;-72
2022/11/15 02:08:19;;;;;;;5.82;1.10;;;;;;;;;;5031383;28;20054;-71
2022/11/15 02:10:46;;;;;;;7.57;1.70;;;;;;;;;;5031426;28;20060;-72
2022/11/15 02:13:14;;;;;;;8.07;1.60;;;;;;;;;;5031567;28;20050;-72
2022/11/15 02:15:48;;;;;;;11.35;1.73;;;;;;;;;;5031541;28;20638;-72
2022/11/15 02:18:35;;;;;;;8.77;1.73;;;;;;;;;;5031656;28;20053;-71
2022/11/15 02:21:08;;;;;;;9.13;1.57;;;;;;;;;;5031751;28;20049;-71
2022/11/15 02:23:53;;;;;;;6.18;1.23;;;;;;;;;;5031740;28;20055;-71
2022/11/15 02:26:19;;;;;;;9.77;1.40;;;;;;;;;;5029989;28;20045;-71
2022/11/15 02:29:21;;;;;;;8.60;1.20;;;;;;;;;;5026745;28;20060;-72
2022/11/15 02:31:59;;;;;;;7.00;1.45;;;;;;;;;;5028920;28;20045;-72
2022/11/15 02:34:44;;;;;;;6.97;1.60;;;;;;;;;;5030961;28;20053;-72
2022/11/15 02:37:30;;;;;;;10.13;1.58;;;;;;;;;;5031219;28;20519;-72
2022/11/15 02:40:06;;;;;;;8.48;1.38;;;;;;;;;;5031269;28;20050;-72
2022/11/15 02:45:31;;;;;;;4.20;1.40;;;;;;;;;;5031529;28;20056;-71
2022/11/15 02:47:59;;;;;;;7.22;1.33;;;;;;;;;;5031180;28;20477;-71
2022/11/15 02:50:27;;;;;;;9.00;1.42;;;;;;;;;;5031477;28;20045;-71
2022/11/15 02:52:53;;;;;;;5.15;1.35;;;;;;;;;;5031340;28;20067;-71
2022/11/15 02:55:32;;;;;;;7.40;1.08;;;;;;;;;;5031138;28;20527;-72
2022/11/15 02:58:08;;;;;;;6.05;1.25;;;;;;;;;;5035221;28;20076;-71
2022/11/15 03:00:47;;;;;;;4.63;1.52;;;;;;;;;;5035077;28;20053;-71
2022/11/15 03:03:21;;;;;;;5.78;0.90;;;;;;;;;;5034983;28;20390;-72
2022/11/15 03:06:00;;;;;;;4.15;0.85;;;;;;;;;;5034681;28;20055;-72
2022/11/15 03:08:39;;;;;;;2.38;0.80;;;;;;;;;;5034859;28;20049;-72
2022/11/15 03:11:06;;;;;;;4.30;0.75;;;;;;;;;;5034876;28;20053;-74
2022/11/15 03:13:50;;;;;;;5.18;1.00;;;;;;;;;;5034802;28;20041;-73
2022/11/15 03:16:24;;;;;;;2.60;0.68;;;;;;;;;;5034533;28;20437;-75
2022/11/15 03:18:57;;;;;;;3.03;0.60;;;;;;;;;;5034427;28;20041;-74
2022/11/15 03:21:24;;;;;;;3.53;0.98;;;;;;;;;;5034285;28;20493;-75
2022/11/15 03:23:52;;;;;;;3.80;0.80;;;;;;;;;;5034573;28;20041;-74
2022/11/15 03:26:19;;;;;;;3.25;0.80;;;;;;;;;;5034546;28;20046;-74
2022/11/15 03:28:49;;;;;;;2.85;0.65;;;;;;;;;;5034315;28;20064;-74
2022/11/15 03:34:04;;;;;;;2.25;0.60;;;;;;;;;;5034202;28;20063;-77
2022/11/15 03:36:32;;;;;;;2.28;0.60;;;;;;;;;;5033829;28;20079;-77
2022/11/15 03:38:58;;;;;;;;;;;;;;;;;;5034594;28;20049;-76
2022/11/15 03:41:29;;;;;;;2.88;0.60;;;;;;;;;;5034487;28;19943;-75
2022/11/15 03:44:08;;;;;;;1.70;0.38;;;;;;;;;;5033915;28;20049;-75
2022/11/15 03:46:40;;;;;;;5.80;0.60;;;;;;;;;;5034145;28;20401;-75
2022/11/15 03:49:09;;;;;;;2.22;0.60;;;;;;;;;;5034132;28;20057;-75
2022/11/15 03:51:35;;;;;;;1.98;0.30;;;;;;;;;;5033780;28;20050;-75
2022/11/15 03:54:03;;;;;;;1.27;0.30;;;;;;;;;;5033976;28;20047;-75
2022/11/15 03:56:29;;;;;;;2.67;0.30;;;;;;;;;;5033626;28;20046;-76
2022/11/15 03:58:56;;;;;;;1.67;0.30;;;;;;;;;;5033589;28;20053;-75
2022/11/15 04:01:22;;;;;;;1.20;0.40;;;;;;;;;;5033954;28;20048;-75
2022/11/15 04:03:48;;;;;;;0.68;0.30;;;;;;;;;;5032427;28;20045;-76
2022/11/15 04:06:15;;;;;;;1.90;0.32;;;;;;;;;;5033446;28;20045;-75
2022/11/15 04:08:41;;;;;;;0.90;0.20;;;;;;;;;;5032722;28;20493;-76
2022/11/15 04:11:07;;;;;;;0.55;0.20;;;;;;;;;;5033664;28;20053;-77
2022/11/15 04:13:34;;;;;;;3.08;0.40;;;;;;;;;;5033734;28;20049;-77
2022/11/15 04:16:00;;;;;;;1.83;0.30;;;;;;;;;;5033307;28;20050;-76
2022/11/15 04:18:26;;;;;;;1.48;0.20;;;;;;;;;;5033338;28;20064;-76
2022/11/15 04:26:23;;;;;;;1.60;0.38;;;;;;;;;;5033466;28;20051;-76
2022/11/15 04:31:34;;;;;;;2.92;0.17;;;;;;;;;;5033092;28;20045;-76
2022/11/15 04:34:00;;;;;;;2.83;0.20;;;;;;;;;;5033037;28;20049;-75
2022/11/15 04:39:12;;;;;;;1.08;0.32;;;;;;;;;;5033306;28;20457;-75
2022/11/15 04:41:38;;;;;;;1.85;0.40;;;;;;;;;;5033140;28;20056;-76
2022/11/15 04:44:04;;;;;;;3.28;0.70;;;;;;;;;;5032910;28;20390;-75
2022/11/15 04:46:31;;;;;;;3.72;0.30;;;;;;;;;;5032701;28;20045;-73
2022/11/15 04:48:57;;;;;;;2.20;0.45;;;;;;;;;;5032889;28;20064;-74
2022/11/15 04:51:25;;;;;;;2.50;0.30;;;;;;;;;;5032983;28;20494;-75
2022/11/15 04:53:51;;;;;;;4.13;0.43;;;;;;;;;;5032577;28;20511;-74
2022/11/15 04:56:18;;;;;;;2.85;0.40;;;;;;;;;;5032756;28;20129;-75
2022/11/15 04:58:45;;;;;;;4.82;0.63;;;;;;;;;;5032714;28;20060;-74
2022/11/15 05:01:14;;;;;;;3.50;0.30;;;;;;;;;;5032558;28;20052;-74
2022/11/15 05:06:26;;;;;;;4.18;0.90;;;;;;;;;;5032453;28;20501;-74
2022/11/15 05:08:53;;;;;;;3.88;0.68;;;;;;;;;;5032432;28;20075;-75
2022/11/15 05:11:20;;;;;;;2.42;0.77;;;;;;;;;;5032552;28;20042;-74
2022/11/15 05:13:46;;;;;;;4.22;0.60;;;;;;;;;;5032287;28;20058;-74
2022/11/15 05:16:13;;;;;;;3.17;0.60;;;;;;;;;;5032450;28;20053;-75
2022/11/15 05:18:40;;;;;;;2.25;0.50;;;;;;;;;;5032411;28;20056;-75
2022/11/15 05:21:08;;;;;;;6.38;0.85;;;;;;;;;;5032405;28;20057;-75
2022/11/15 05:23:34;;;;;;;4.82;0.63;;;;;;;;;;5032105;28;20132;-74
2022/11/15 05:26:01;;;;;;;2.70;0.52;;;;;;;;;;5032002;28;20049;-74
2022/11/15 05:28:34;;;;;;;3.72;0.93;;;;;;;;;;5032046;28;20045;-75
2022/11/15 05:31:05;;;;;;;2.47;0.60;;;;;;;;;;5031989;28;20053;-75
2022/11/15 05:33:33;;;;;;;5.20;0.60;;;;;;;;;;5032012;28;20481;-75
2022/11/15 05:35:59;;;;;;;;;;;;;;;;;;5032276;28;20049;-75
2022/11/15 05:38:26;;;;;;;4.68;0.40;;;;;;;;;;5032149;28;19928;-75
2022/11/15 05:40:52;;;;;;;3.25;0.40;;;;;;;;;;5031802;28;20067;-76
2022/11/15 05:43:19;;;;;;;3.42;0.80;;;;;;;;;;5032154;28;20796;-76
2022/11/15 05:45:45;;;;;;;3.95;0.50;;;;;;;;;;5031932;28;20051;-76
2022/11/15 05:48:12;;;;;;;3.38;0.63;;;;;;;;;;5031798;28;20049;-75
2022/11/15 05:50:40;;;;;;;4.13;0.70;;;;;;;;;;5031690;28;20493;-75
2022/11/15 05:53:07;;;;;;;3.83;0.75;;;;;;;;;;5031632;28;20049;-75
2022/11/15 05:55:33;;;;;;;4.70;1.10;;;;;;;;;;5031943;28;20050;-75
2022/11/15 05:58:00;;;;;;;2.45;0.70;;;;;;;;;;5031854;28;20056;-75
2022/11/15 06:00:28;;;;;;;6.00;1.00;;;;;;;;;;5031692;28;20053;-75
2022/11/15 06:02:54;;;;;;;3.03;0.88;;;;;;;;;;5031615;28;20498;-75
2022/11/15 06:05:20;;;;;;;3.35;0.82;;;;;;;;;;5031632;28;20056;-75
2022/11/15 06:07:47;;;;;;;6.93;1.05;;;;;;;;;;5031395;28;20048;-75
2022/11/15 06:10:13;;;;;;;7.28;1.20;;;;;;;;;;5031629;28;20053;-75
2022/11/15 06:12:39;;;;;;;4.05;0.93;;;;;;;;;;5031459;28;20485;-75
2022/11/15 06:15:06;;;;;;;3.67;0.82;;;;;;;;;;5031811;28;20054;-75
2022/11/15 06:17:33;;;;;;;5.20;0.95;;;;;;;;;;5031664;28;20059;-75
2022/11/15 06:19:59;;;;;;;2.28;0.80;;;;;;;;;;5031788;28;20049;-75
2022/11/15 06:22:25;;;;;;;5.25;0.68;;;;;;;;;;5031644;28;20053;-75
2022/11/15 06:24:52;;;;;;;2.85;0.77;;;;;;;;;;5031618;28;20072;-74
2022/11/15 06:27:18;;;;;;;3.70;0.80;;;;;;;;;;5031493;28;20049;-75
2022/11/15 06:29:44;;;;;;;4.03;0.70;;;;;;;;;;5031557;28;20045;-75
2022/11/15 06:32:11;;;;;;;2.85;0.60;;;;;;;;;;5034248;28;20394;-75
2022/11/15 06:34:37;;;;;;;4.18;0.93;;;;;;;;;;5035138;28;20056;-75
2022/11/15 06:37:03;;;;;;;5.82;1.00;;;;;;;;;;5035240;28;20042;-75
2022/11/15 06:39:30;;;;;;;3.90;0.82;;;;;;;;;;5035174;28;20049;-75
2022/11/15 06:41:56;;;;;;;7.22;1.20;;;;;;;;;;5035007;28;20056;-75
2022/11/15 06:44:22;;;;;;;4.28;0.77;;;;;;;;;;5035229;28;20050;-74
2022/11/15 06:46:49;;;;;;;6.00;1.35;;;;;;;;;;5035204;28;20053;-76
2022/11/15 06:49:16;;;;;;;2.65;0.77;;;;;;;;;;5034887;28;20060;-75
2022/11/15 06:51:43;;;;;;;3.88;0.77;;;;;;;;;;5035226;28;20408;-76
2022/11/15 06:54:09;;;;;;;5.28;0.85;;;;;;;;;;5035177;28;20075;-75
2022/11/15 06:56:35;;;;;;;2.45;0.70;;;;;;;;;;5034921;28;20508;-75
2022/11/15 06:59:02;;;;;;;6.18;0.75;;;;;;;;;;5034832;28;20502;-75
2022/11/15 07:01:28;;;;;;;3.97;0.60;;;;;;;;;;5034821;28;20052;-75
2022/11/15 07:03:55;;;;;;;6.55;1.10;;;;;;;;;;5034653;28;20089;-75
2022/11/15 07:06:21;;;;;;;3.17;0.93;;;;;;;;;;5034629;28;20060;-76
2022/11/15 07:08:47;;;;;;;5.03;0.88;;;;;;;;;;5034903;28;20046;-75
2022/11/15 07:11:14;;;;;;;4.68;0.70;;;;;;;;;;5034863;28;20049;-75
2022/11/15 07:13:40;;;;;;;2.20;0.80;;;;;;;;;;5034571;28;20050;-75
2022/11/15 07:16:08;;;;;;;4.65;0.88;;;;;;;;;;5034554;28;20128;-73
2022/11/15 07:18:35;;;;;;;;;;;;;;;;;;5034905;28;20053;-73
2022/11/15 07:21:05;;;;;;;1.85;0.52;;;;;;;;;;5034633;28;19925;-73
2022/11/15 07:23:31;;;;;;;6.38;0.70;;;;;;;;;;5034601;28;20057;-73
2022/11/15 07:25:59;;;;;;;5.13;0.65;;;;;;;;;;5034367;28;20492;-73
2022/11/15 07:28:26;;;;;;;2.47;0.60;;;;;;;;;;5019848;28;20057;-73
2022/11/15 07:30:53;;;;;;;2.95;0.45;;;;;;;;;;5006904;28;20042;-73
2022/11/15 07:33:20;;;;;;;5.07;0.57;;;;;;;;;;5034219;28;20051;-73
2022/11/15 07:35:49;;;;;;;2.90;0.57;;;;;;;;;;5034187;28;20047;-73
2022/11/15 07:38:19;;;;;;;3.58;0.38;;;;;;;;;;5034321;28;20056;-72
2022/11/15 07:40:46;;;;;;;2.92;0.20;;;;;;;;;;5034327;28;20412;-72
2022/11/15 07:43:12;;;;;;;1.83;0.30;;;;;;;;;;5032896;28;20378;-73
2022/11/15 07:45:42;;;;;;;2.38;0.40;;;;;;;;;;5033580;28;20045;-74
2022/11/15 07:48:09;;;;;;;2.97;0.40;;;;;;;;;;5033452;28;20585;-73
2022/11/15 07:50:35;;;;;;;1.30;0.40;;;;;;;;;;5033476;28;20511;-75
2022/11/15 07:53:02;;;;;;;3.92;0.30;;;;;;;;;;5033240;28;20498;-73
2022/11/15 07:55:29;;;;;;;2.45;0.30;;;;;;;;;;5015413;28;20418;-73
2022/11/15 07:58:05;;;;;;;1.83;0.40;;;;;;;;;;5030605;28;21053;-73
2022/11/15 08:00:32;;;;;;;0.70;0.30;;;;;;;;;;5019265;28;20416;-73
2022/11/15 08:03:06;;;;;;;2.15;0.20;;;;;;;;;;5013316;28;20058;-71
2022/11/15 08:05:32;;;;;;;2.55;0.30;;;;;;;;;;5020850;28;20060;-72
2022/11/15 08:07:59;;;;;;;1.02;0.30;;;;;;;;;;5032979;28;20046;-73
2022/11/15 08:10:26;;;;;;;1.90;0.20;;;;;;;;;;5033507;28;20450;-72
2022/11/15 08:13:02;;;;;;;4.38;0.20;;;;;;;;;;5033538;28;20041;-72
2022/11/15 08:15:29;;;;;;;1.98;0.30;;;;;;;;;;5033652;28;20048;-72
2022/11/15 08:17:56;;;;;;;2.28;0.13;;;;;;;;;;5033658;28;20057;-72
2022/11/15 08:20:23;;;;;;;3.15;0.38;;;;;;;;;;5030334;28;20058;-72
2022/11/15 08:22:50;;;;;;;0.52;0.30;;;;;;;;;;5022278;28;20504;-72
2022/11/15 08:25:16;;;;;;;3.40;0.30;;;;;;;;;;5016343;28;20421;-72
2022/11/15 08:27:43;;;;;;;3.33;0.52;;;;;;;;;;5019281;28;20398;-72
2022/11/15 08:30:10;;;;;;;1.83;0.30;;;;;;;;;;5019690;28;20049;-73
2022/11/15 08:32:37;;;;;;;4.00;0.47;;;;;;;;;;5021309;28;20130;-74
2022/11/15 08:35:03;;;;;;;2.40;0.60;;;;;;;;;;5024167;28;20505;-74
2022/11/15 08:37:30;;;;;;;6.38;1.10;;;;;;;;;;5026825;28;20053;-74
2022/11/15 08:39:56;;;;;;;6.07;0.82;;;;;;;;;;5013619;28;20053;-73
2022/11/15 08:42:22;;;;;;;7.85;0.77;;;;;;;;;;5023292;28;20050;-72
2022/11/15 08:44:49;;;;;;;4.88;0.50;;;;;;;;;;5014581;28;20058;-74
2022/11/15 08:47:15;;;;;;;6.32;0.63;;;;;;;;;;5032858;28;20050;-74
2022/11/15 08:49:41;;;;;;;8.20;0.90;;;;;;;;;;5032831;28;20046;-74
2022/11/15 08:52:08;;;;;;;9.63;0.98;;;;;;;;;;5032709;28;20053;-74
2022/11/15 08:54:34;;;;;;;4.20;0.68;;;;;;;;;;5017587;28;20068;-73
2022/11/15 08:57:01;;;;;;;4.93;0.52;;;;;;;;;;5029694;28;20053;-73
2022/11/15 08:59:27;;;;;;;3.92;0.82;;;;;;;;;;5032847;28;20144;-73
2022/11/15 09:01:53;;;;;;;2.47;0.50;;;;;;;;;;5032533;28;20476;-73
2022/11/15 09:04:20;;;;;;;3.08;0.77;;;;;;;;;;5032763;28;20061;-73
2022/11/15 09:06:46;;;;;;;5.78;0.60;;;;;;;;;;5032675;28;20075;-74
2022/11/15 09:09:13;;;;;;;6.50;0.82;;;;;;;;;;5032223;28;20417;-73
2022/11/15 09:11:39;;;;;;;3.05;0.50;;;;;;;;;;5032331;28;20056;-74
2022/11/15 09:14:05;;;;;;;2.20;0.50;;;;;;;;;;5032282;28;20046;-74
2022/11/15 09:16:32;;;;;;;1.35;0.10;;;;;;;;;;5022364;28;20052;-74
2022/11/15 09:18:58;;;;;;;0.20;0.20;;;;;;;;;;5013321;28;20053;-74
2022/11/15 09:21:25;;;;;;;0.17;0.10;;;;;;;;;;5031857;28;20057;-74
2022/11/15 09:23:52;;;;;;;0.73;0.05;;;;;;;;;;5032103;28;20097;-71
2022/11/15 09:26:18;;;;;;;0.85;0.10;;;;;;;;;;5032071;28;20079;-74
2022/11/15 09:28:45;;;;;;;1.52;0.28;;;;;;;;;;5022870;28;20045;-73
2022/11/15 09:31:11;;;;;;;2.03;0.10;;;;;;;;;;5011150;28;20071;-73
2022/11/15 09:33:38;;;;;;;1.08;0.15;;;;;;;;;;5022302;28;20046;-73
2022/11/15 09:36:06;;;;;;;1.75;0.30;;;;;;;;;;5031168;28;20053;-73
2022/11/15 09:38:33;;;;;;;3.15;1.40;;;;;;;;;;5030320;28;20050;-73
2022/11/15 09:41:12;;;;;;;5.60;1.15;;;;;;;;;;5031552;28;20053;-73
2022/11/15 09:43:47;;;;;;;6.53;1.40;;;;;;;;;;5014322;28;20050;-73
2022/11/15 09:46:32;;;;;;;2.63;0.82;;;;;;;;;;5020778;28;20060;-73
2022/11/15 09:49:00;;;;;;;4.43;1.00;;;;;;;;;;5023864;28;20160;-74
2022/11/15 09:51:34;;;;;;;11.13;1.35;;;;;;;;;;5031328;28;20042;-74
2022/11/15 09:54:00;;;;;;;6.95;1.35;;;;;;;;;;5024477;28;20050;-74
2022/11/15 09:56:47;;;;;;;5.78;1.13;;;;;;;;;;5012528;28;20054;-74
2022/11/15 09:59:23;;;;;;;6.85;1.00;;;;;;;;;;5029816;28;20053;-74
2022/11/15 10:02:04;;;;;;;5.15;0.60;;;;;;;;;;5029186;28;20061;-74
2022/11/15 10:04:31;;;;;;;12.68;1.27;;;;;;;;;;5031003;28;20353;-74
2022/11/15 10:07:00;;;;;;;6.75;0.90;;;;;;;;;;5028589;28;20061;-73
2022/11/15 10:09:35;;;;;;;7.35;1.92;;;;;;;;;;5030933;28;20128;-74
2022/11/15 10:12:02;;;;;;;5.72;1.17;;;;;;;;;;5031147;28;20393;-75
2022/11/15 10:14:29;;;;;;;5.68;1.02;;;;;;;;;;5030990;28;20049;-74
2022/11/15 10:16:56;;;;;;;6.68;1.70;;;;;;;;;;5029672;28;20056;-74
2022/11/15 10:19:31;;;;;;;3.38;0.95;;;;;;;;;;5031293;28;20516;-73
2022/11/15 10:22:16;;;;;;;4.82;1.00;;;;;;;;;;5016897;28;20057;-74
2022/11/15 10:24:44;;;;;;;7.00;2.22;;;;;;;;;;5019470;28;20048;-74
2022/11/15 10:27:11;;;;;;;7.28;1.40;;;;;;;;;;5030800;28;20053;-75
2022/11/15 10:29:42;;;;;;;9.07;3.28;;;;;;;;;;5031014;28;20057;-73
2022/11/15 10:32:10;;;;;;;9.88;4.45;;;;;;;;;;5030887;28;20057;-75
2022/11/15 10:34:37;;;;;;;5.90;1.80;;;;;;;;;;5030579;28;20500;-75
2022/11/15 10:37:03;;;;;;;6.25;1.30;;;;;;;;;;5024186;28;20046;-74
2022/11/15 10:39:30;;;;;;;9.93;1.60;;;;;;;;;;5011861;28;20061;-76
2022/11/15 10:41:56;;;;;;;3.83;1.27;;;;;;;;;;5015899;28;20128;-76
2022/11/15 10:44:28;;;;;;;5.15;1.23;;;;;;;;;;5026071;28;20069;-76
2022/11/15 10:46:54;;;;;;;5.72;1.30;;;;;;;;;;5030570;28;20512;-76
2022/11/15 10:49:22;;;;;;;5.63;1.30;;;;;;;;;;5030737;28;20068;-76
2022/11/15 10:51:49;;;;;;;4.10;1.35;;;;;;;;;;5030883;28;20092;-75
2022/11/15 10:54:28;;;;;;;6.22;1.30;;;;;;;;;;5016217;28;20061;-76
2022/11/15 10:56:55;;;;;;;4.68;1.00;;;;;;;;;;5030538;28;20582;-76
2022/11/15 10:59:31;;;;;;;7.93;1.55;;;;;;;;;;5030444;28;20409;-75
2022/11/15 11:02:23;;;;;;;4.15;1.15;;;;;;;;;;5030419;28;20492;-76
2022/11/15 11:04:50;;;;;;;6.93;1.20;;;;;;;;;;5028842;28;20054;-75
2022/11/15 11:07:24;;;;;;;9.43;1.85;;;;;;;;;;5030681;28;20053;-76
2022/11/15 11:09:58;;;;;;;5.30;1.42;;;;;;;;;;5030503;28;20084;-76
2022/11/15 11:12:29;;;;;;;7.05;1.40;;;;;;;;;;5030640;28;20113;-76
2022/11/15 11:14:57;;;;;;;6.10;1.30;;;;;;;;;;5030409;28;20120;-76
2022/11/15 11:17:23;;;;;;;7.88;1.95;;;;;;;;;;5031610;28;20045;-76
2022/11/15 11:19:49;;;;;;;6.38;1.98;;;;;;;;;;5033890;28;20049;-76
2022/11/15 11:22:22;;;;;;;5.85;1.63;;;;;;;;;;5032805;28;20061;-76
2022/11/15 11:25:07;;;;;;;5.35;1.38;;;;;;;;;;5015163;28;20096;-75
2022/11/15 11:27:51;;;;;;;4.97;1.95;;;;;;;;;;5013898;28;20054;-75
2022/11/15 11:30:36;;;;;;;5.90;2.83;;;;;;;;;;5022353;28;20045;-75
2022/11/15 11:33:21;;;;;;;6.35;1.70;;;;;;;;;;5033966;28;21152;-75
2022/11/15 11:35:59;;;;;;;5.10;1.25;;;;;;;;;;5033388;28;20141;-74
2022/11/15 11:38:34;;;;;;;3.75;1.15;;;;;;;;;;5016066;28;20137;-74
2022/11/15 11:41:10;;;;;;;7.53;1.55;;;;;;;;;;5029207;28;20049;-74
2022/11/15 11:43:41;;;;;;;5.57;1.20;;;;;;;;;;5033852;28;20056;-72
2022/11/15 11:46:10;;;;;;;5.05;1.38;;;;;;;;;;5014646;28;20049;-73
2022/11/15 11:48:41;;;;;;;12.60;6.68;;;;;;;;;;5015901;28;20053;-74
2022/11/15 11:51:15;;;;;;;8.77;4.90;;;;;;;;;;5013103;28;20050;-74
2022/11/15 11:53:53;;;;;;;5.72;1.60;;;;;;;;;;5013286;28;20133;-75
2022/11/15 11:56:30;;;;;;;8.60;3.40;;;;;;;;;;5030186;28;20045;-75
2022/11/15 11:59:00;;;;;;;5.85;2.00;;;;;;;;;;5033669;28;20497;-74
2022/11/15 12:01:30;;;;;;;5.65;1.20;;;;;;;;;;5025973;28;20045;-73
2022/11/15 12:04:01;;;;;;;5.90;1.33;;;;;;;;;;5033409;28;20060;-73
2022/11/15 12:06:31;;;;;;;5.55;0.98;;;;;;;;;;5032669;28;20045;-72
2022/11/15 12:09:01;;;;;;;6.30;2.47;;;;;;;;;;5033455;28;20059;-73
2022/11/15 12:11:35;;;;;;;12.93;4.10;;;;;;;;;;5033525;28;20049;-73
2022/11/15 12:14:05;;;;;;;9.38;4.38;;;;;;;;;;5033616;28;20390;-73
2022/11/15 12:16:33;;;;;;;14.40;4.55;;;;;;;;;;5033319;28;20063;-72
2022/11/15 12:18:59;;;;;;;;;;;;;;;;;;5033533;28;20560;-73
2022/11/15 12:21:44;;;;;;;5.30;2.22;;;;;;;;;;5033301;28;20292;-73
2022/11/15 12:24:26;;;;;;;6.85;1.90;;;;;;;;;;5033723;28;20133;-72
2022/11/15 12:26:55;;;;;;;5.60;2.55;;;;;;;;;;5033191;28;20055;-72
2022/11/15 12:29:31;;;;;;;10.32;2.60;;;;;;;;;;5032665;28;20061;-73
2022/11/15 12:31:59;;;;;;;10.27;2.33;;;;;;;;;;5033529;28;20505;-72
2022/11/15 12:34:41;;;;;;;4.45;1.85;;;;;;;;;;5033074;28;20152;-72
2022/11/15 12:37:26;;;;;;;7.93;1.45;;;;;;;;;;5032693;28;20053;-73
2022/11/15 12:40:11;;;;;;;5.70;1.50;;;;;;;;;;5017471;28;20390;-73
2022/11/15 12:42:39;;;;;;;5.13;1.50;;;;;;;;;;5020946;28;20444;-72
2022/11/15 12:45:24;;;;;;;8.18;1.80;;;;;;;;;;5031655;28;20064;-72
2022/11/15 12:47:50;;;;;;;7.18;1.23;;;;;;;;;;5019963;28;20064;-72
2022/11/15 12:50:36;;;;;;;6.57;1.92;;;;;;;;;;5021722;28;20046;-72
2022/11/15 12:53:22;;;;;;;6.70;1.40;;;;;;;;;;5016227;28;20045;-71
2022/11/15 12:56:07;;;;;;;10.07;1.40;;;;;;;;;;5022441;28;20367;-72
2022/11/15 12:58:53;;;;;;;8.50;1.33;;;;;;;;;;5032808;28;20049;-72
2022/11/15 13:01:32;;;;;;;5.35;1.50;;;;;;;;;;5031997;28;20069;-70
2022/11/15 13:04:18;;;;;;;7.30;1.65;;;;;;;;;;5032505;28;20045;-70
2022/11/15 13:06:44;;;;;;;13.20;4.10;;;;;;;;;;5030970;28;20052;-71
2022/11/15 13:09:29;;;;;;;9.88;1.88;;;;;;;;;;5023530;28;20046;-71
2022/11/15 13:11:56;;;;;;;8.15;1.85;;;;;;;;;;5013711;28;20052;-71
2022/11/15 13:14:39;;;;;;;5.88;2.00;;;;;;;;;;5031596;28;20076;-70
2022/11/15 13:17:21;;;;;;;7.45;1.38;;;;;;;;;;5032490;28;20470;-71
2022/11/15 13:20:02;;;;;;;3.00;1.00;;;;;;;;;;5032190;28;20053;-71
2022/11/15 13:25:25;;;;;;;5.75;1.05;;;;;;;;;;5032048;28;20770;-71
2022/11/15 13:27:54;;;;;;;3.95;1.15;;;;;;;;;;5011453;28;20046;-72
2022/11/15 13:30:24;;;;;;;10.90;1.67;;;;;;;;;;5026697;28;20047;-70
2022/11/15 13:32:51;;;;;;;4.93;1.60;;;;;;;;;;5031518;28;20534;-71
2022/11/15 13:35:20;;;;;;;5.30;1.37;;;;;;;;;;5031382;28;20050;-72
2022/11/15 13:37:46;;;;;;;8.73;1.88;;;;;;;;;;5031636;28;20045;-72
2022/11/15 13:40:19;;;;;;;5.70;1.00;;;;;;;;;;5030836;28;20084;-70
2022/11/15 13:42:46;;;;;;;3.08;1.00;;;;;;;;;;5030395;28;20057;-71
2022/11/15 13:45:16;;;;;;;7.32;1.48;;;;;;;;;;5029534;28;20060;-70
2022/11/15 13:47:43;;;;;;;5.82;1.45;;;;;;;;;;5031284;28;20833;-70
2022/11/15 13:50:10;;;;;;;6.93;1.10;;;;;;;;;;5030741;28;20045;-71
2022/11/15 13:52:40;;;;;;;3.00;0.50;;;;;;;;;;5031065;28;20386;-71
2022/11/15 13:55:14;;;;;;;4.88;0.70;;;;;;;;;;5031478;28;20049;-71
2022/11/15 13:57:40;;;;;;;3.13;0.63;;;;;;;;;;5031401;28;20045;-71
2022/11/15 14:00:24;;;;;;;2.33;0.50;;;;;;;;;;5031428;28;20053;-74
2022/11/15 14:02:50;;;;;;;2.67;0.52;;;;;;;;;;5031252;28;20052;-71
2022/11/15 14:05:18;;;;;;;4.40;0.65;;;;;;;;;;5031014;28;20049;-73
2022/11/15 14:07:56;;;;;;;3.15;0.50;;;;;;;;;;5030517;28;20124;-75
2022/11/15 14:10:25;;;;;;;2.33;0.60;;;;;;;;;;5030944;28;20515;-74
2022/11/15 14:12:52;;;;;;;3.15;0.57;;;;;;;;;;5031191;28;20045;-74
2022/11/15 14:15:25;;;;;;;3.35;0.63;;;;;;;;;;5031242;28;20046;-74
2022/11/15 14:17:52;;;;;;;2.53;0.45;;;;;;;;;;5031164;28;20120;-75
2022/11/15 14:20:19;;;;;;;2.95;0.60;;;;;;;;;;5030940;28;20107;-74
2022/11/15 14:22:53;;;;;;;2.90;0.60;;;;;;;;;;5029852;28;20064;-73
2022/11/15 14:25:21;;;;;;;2.67;0.60;;;;;;;;;;5030405;28;20053;-75
2022/11/15 14:28:06;;;;;;;1.25;0.55;;;;;;;;;;5030741;28;20107;-75
2022/11/15 14:30:33;;;;;;;2.45;0.50;;;;;;;;;;5030709;28;20049;-76
2022/11/15 14:32:59;;;;;;;3.38;0.80;;;;;;;;;;5030970;28;20046;-74
2022/11/15 14:35:26;;;;;;;2.97;0.80;;;;;;;;;;5029658;28;20502;-74
2022/11/15 14:37:52;;;;;;;3.93;0.60;;;;;;;;;;5030564;28;20073;-74
2022/11/15 14:40:20;;;;;;;1.77;0.50;;;;;;;;;;5030831;28;20060;-74
2022/11/15 14:42:47;;;;;;;2.35;0.40;;;;;;;;;;5030973;28;20053;-73
2022/11/15 14:45:15;;;;;;;1.65;0.40;;;;;;;;;;5026469;28;20057;-74
2022/11/15 14:47:42;;;;;;;2.17;0.50;;;;;;;;;;5030717;28;20049;-72
2022/11/15 14:50:15;;;;;;;3.30;0.70;;;;;;;;;;5029831;28;20073;-74
2022/11/15 14:52:42;;;;;;;2.33;0.60;;;;;;;;;;5032519;28;20052;-74
2022/11/15 14:55:15;;;;;;;4.25;0.73;;;;;;;;;;5026472;28;20047;-76
2022/11/15 14:57:41;;;;;;;2.88;0.40;;;;;;;;;;5033371;28;20041;-75
2022/11/15 15:00:09;;;;;;;5.13;0.70;;;;;;;;;;5035042;28;20049;-76
2022/11/15 15:02:36;;;;;;;2.33;0.45;;;;;;;;;;5032741;28;20058;-74
2022/11/15 15:05:12;;;;;;;3.05;0.38;;;;;;;;;;5033937;28;20049;-74
2022/11/15 15:07:38;;;;;;;5.05;0.77;;;;;;;;;;5034370;28;20140;-75
2022/11/15 15:10:05;;;;;;;2.20;0.70;;;;;;;;;;5034729;28;20099;-76
2022/11/15 15:12:51;;;;;;;4.07;0.77;;;;;;;;;;5033414;28;20049;-77
2022/11/15 15:15:21;;;;;;;5.25;0.52;;;;;;;;;;5034615;28;20132;-78
2022/11/15 15:17:47;;;;;;;4.50;0.80;;;;;;;;;;5028256;28;20046;-78
2022/11/15 15:20:14;;;;;;;3.80;0.73;;;;;;;;;;5027444;28;20046;-79